createdAt,value
2019-06-20T00:00:33.253Z,19.30
2019-06-20T00:03:38.070Z,19.20
2019-06-20T00:06:42.076Z,19.10
2019-06-20T00:09:45.979Z,19.10
2019-06-20T00:12:59.953Z,18.90
2019-06-20T00:15:55.546Z,19.00
2019-06-20T00:18:59.438Z,19.00
2019-06-20T00:22:03.423Z,19.00
2019-06-20T00:25:07.846Z,19.10
2019-06-20T00:28:11.925Z,19.20
2019-06-20T00:31:15.956Z,19.10
2019-06-20T00:34:19.996Z,19.10
2019-06-20T00:37:23.975Z,19.10
2019-06-20T00:40:28.027Z,19.10
2019-06-20T00:43:31.961Z,19.00
2019-06-20T00:46:35.936Z,19.00
2019-06-20T00:49:39.878Z,19.10
2019-06-20T00:52:43.836Z,19.10
2019-06-20T00:55:47.757Z,19.10
2019-06-20T00:58:51.731Z,19.00
2019-06-20T01:01:55.637Z,18.90
2019-06-20T01:04:59.784Z,19.00
2019-06-20T01:08:03.737Z,19.00
2019-06-20T01:11:07.748Z,19.10
2019-06-20T01:14:11.777Z,19.10
2019-06-20T01:17:15.746Z,19.10
2019-06-20T01:20:20.117Z,19.10
2019-06-20T01:23:24.117Z,19.10
2019-06-20T01:26:28.038Z,19.20
2019-06-20T01:29:32.086Z,19.20
2019-06-20T01:32:36.062Z,19.10
2019-06-20T01:35:40.047Z,19.20
2019-06-20T01:38:43.973Z,19.20
2019-06-20T01:41:47.960Z,19.20
2019-06-20T01:44:51.888Z,19.20
2019-06-20T01:47:55.972Z,19.30
2019-06-20T01:51:00.080Z,19.30
2019-06-20T01:54:04.395Z,19.20
2019-06-20T01:57:08.457Z,19.30
2019-06-20T02:00:14.349Z,19.20
2019-06-20T02:03:18.673Z,19.30
2019-06-20T02:06:22.575Z,19.30
2019-06-20T02:09:26.558Z,19.40
2019-06-20T02:12:30.467Z,19.40
2019-06-20T02:15:34.448Z,19.50
2019-06-20T02:18:38.537Z,19.40
2019-06-20T02:21:42.480Z,19.40
2019-06-20T02:24:46.458Z,19.40
2019-06-20T02:27:50.443Z,19.20
2019-06-20T02:30:54.365Z,19.20
2019-06-20T02:33:58.357Z,19.20
2019-06-20T02:37:02.311Z,19.20
2019-06-20T02:40:07.633Z,19.20
2019-06-20T02:43:11.562Z,19.30
2019-06-20T02:46:15.607Z,19.20
2019-06-20T02:49:19.531Z,19.10
2019-06-20T02:52:24.328Z,19.10
2019-06-20T02:55:28.249Z,19.10
2019-06-20T02:58:32.218Z,19.10
2019-06-20T03:01:36.137Z,19.20
2019-06-20T03:04:40.087Z,19.20
2019-06-20T03:07:44.057Z,19.10
2019-06-20T03:10:48.222Z,19.20
2019-06-20T03:13:52.187Z,19.10
2019-06-20T03:16:56.197Z,19.20
2019-06-20T03:20:00.116Z,19.20
2019-06-20T03:23:04.140Z,19.20
2019-06-20T03:26:08.131Z,19.20
2019-06-20T03:29:12.121Z,19.20
2019-06-20T03:32:16.144Z,19.20
2019-06-20T03:35:20.239Z,19.30
2019-06-20T03:38:24.337Z,19.40
2019-06-20T03:41:28.409Z,19.30
2019-06-20T03:44:32.307Z,19.30
2019-06-20T03:47:36.352Z,19.30
2019-06-20T03:50:40.312Z,19.40
2019-06-20T03:53:44.290Z,19.50
2019-06-20T03:56:48.198Z,19.50
2019-06-20T03:59:52.146Z,19.60
2019-06-20T04:02:56.077Z,19.60
2019-06-20T04:06:00.043Z,19.70
2019-06-20T04:09:04.948Z,19.60
2019-06-20T04:12:08.893Z,19.60
2019-06-20T04:15:19.205Z,19.60
2019-06-20T04:18:18.440Z,19.60
2019-06-20T04:21:22.376Z,19.70
2019-06-20T04:24:28.032Z,19.70
2019-06-20T04:27:32.091Z,19.70
2019-06-20T04:30:36.026Z,19.60
2019-06-20T04:33:39.975Z,19.60
2019-06-20T04:36:43.977Z,19.80
2019-06-20T04:39:47.851Z,19.90
2019-06-20T04:42:51.837Z,20.00
2019-06-20T04:46:03.081Z,20.10
2019-06-20T04:49:07.127Z,20.10
2019-06-20T04:52:11.028Z,20.20
2019-06-20T04:55:14.999Z,20.30
2019-06-20T04:58:18.895Z,20.50
2019-06-20T05:01:22.922Z,20.50
2019-06-20T05:04:27.779Z,20.60
2019-06-20T05:07:31.697Z,20.70
2019-06-20T05:10:35.620Z,20.90
2019-06-20T05:13:39.583Z,20.90
2019-06-20T05:16:43.528Z,21.00
2019-06-20T05:19:47.490Z,21.00
2019-06-20T05:22:51.428Z,21.00
2019-06-20T05:25:55.402Z,21.00
2019-06-20T05:28:59.292Z,21.10
2019-06-20T05:32:03.465Z,21.10
2019-06-20T05:35:08.317Z,21.20
2019-06-20T05:38:12.317Z,21.30
2019-06-20T05:41:16.237Z,21.40
2019-06-20T05:44:20.175Z,21.50
2019-06-20T05:47:24.088Z,21.60
2019-06-20T05:50:28.196Z,21.70
2019-06-20T05:53:32.187Z,21.80
2019-06-20T05:56:36.138Z,21.80
2019-06-20T05:59:40.035Z,21.90
2019-06-20T06:02:44.038Z,22.10
2019-06-20T06:05:48.036Z,22.20
2019-06-20T06:08:51.973Z,22.30
2019-06-20T06:11:55.900Z,22.40
2019-06-20T06:15:00.941Z,22.50
2019-06-20T06:18:05.292Z,22.60
2019-06-20T06:21:09.421Z,22.80
2019-06-20T06:24:13.343Z,22.90
2019-06-20T06:27:17.351Z,23.10
2019-06-20T06:30:21.296Z,23.40
2019-06-20T06:33:25.239Z,23.50
2019-06-20T06:36:29.208Z,23.80
2019-06-20T06:39:33.317Z,23.90
2019-06-20T06:42:37.190Z,24.00
2019-06-20T06:45:41.433Z,24.00
2019-06-20T06:48:45.452Z,24.00
2019-06-20T06:51:49.675Z,24.10
2019-06-20T06:54:53.865Z,24.10
2019-06-20T06:57:57.932Z,24.10
2019-06-20T07:01:02.133Z,24.10
2019-06-20T07:04:06.260Z,24.10
2019-06-20T07:07:10.208Z,24.20
2019-06-20T07:10:14.564Z,24.30
2019-06-20T07:13:18.981Z,24.30
2019-06-20T07:16:22.918Z,24.40
2019-06-20T07:19:26.968Z,24.50
2019-06-20T07:22:31.229Z,24.60
2019-06-20T07:25:35.237Z,24.70
2019-06-20T07:28:39.277Z,24.70
2019-06-20T07:31:43.180Z,24.80
2019-06-20T07:34:47.188Z,24.70
2019-06-20T07:37:51.418Z,24.70
2019-06-20T07:40:55.439Z,24.50
2019-06-20T07:43:59.375Z,24.50
2019-06-20T07:47:16.737Z,24.60
2019-06-20T07:50:09.738Z,24.60
2019-06-20T07:53:13.679Z,24.70
2019-06-20T07:56:17.570Z,24.80
2019-06-20T07:59:21.552Z,24.90
2019-06-20T08:02:25.512Z,25.10
2019-06-20T08:05:29.553Z,25.20
2019-06-20T08:08:33.517Z,25.50
2019-06-20T08:11:37.450Z,25.50
2019-06-20T08:14:41.392Z,25.60
2019-06-20T08:17:45.357Z,25.70
2019-06-20T08:20:49.396Z,26.00
2019-06-20T08:23:53.356Z,26.20
2019-06-20T08:26:58.665Z,26.30
2019-06-20T08:30:03.551Z,26.50
2019-06-20T08:33:11.851Z,26.70
2019-06-20T08:36:14.957Z,26.80
2019-06-20T08:39:18.909Z,26.90
2019-06-20T08:42:22.927Z,26.90
2019-06-20T08:45:29.132Z,27.10
2019-06-20T08:48:33.178Z,27.00
2019-06-20T08:51:37.130Z,27.20
2019-06-20T08:54:41.147Z,27.30
2019-06-20T08:57:45.247Z,27.30
2019-06-20T09:00:49.294Z,27.20
2019-06-20T09:03:55.170Z,27.10
2019-06-20T09:07:00.303Z,27.10
2019-06-20T09:10:06.258Z,27.10
2019-06-20T09:13:12.268Z,27.20
2019-06-20T09:16:24.387Z,27.10
2019-06-20T09:19:21.821Z,27.20
2019-06-20T09:22:25.753Z,27.10
2019-06-20T09:25:29.768Z,26.90
2019-06-20T09:28:33.702Z,26.90
2019-06-20T09:31:37.785Z,26.80
2019-06-20T09:34:41.797Z,26.90
2019-06-20T09:37:45.807Z,26.80
2019-06-20T09:40:51.339Z,26.70
2019-06-20T09:43:56.442Z,26.60
2019-06-20T09:47:00.391Z,26.40
2019-06-20T09:50:09.593Z,26.50
2019-06-20T09:53:13.545Z,26.50
2019-06-20T09:56:17.516Z,26.60
2019-06-20T09:59:27.600Z,26.70
2019-06-20T10:02:27.203Z,26.60
2019-06-20T10:05:31.191Z,26.60
2019-06-20T10:08:35.227Z,26.70
2019-06-20T10:11:39.168Z,26.70
2019-06-20T10:14:43.127Z,26.70
2019-06-20T10:17:47.386Z,26.90
2019-06-20T10:20:53.083Z,26.90
2019-06-20T10:23:57.127Z,27.10
2019-06-20T10:27:01.287Z,27.20
2019-06-20T10:30:14.235Z,27.20
2019-06-20T10:33:13.356Z,27.30
2019-06-20T10:36:17.328Z,27.50
2019-06-20T10:39:21.252Z,27.80
2019-06-20T10:42:25.466Z,27.90
2019-06-20T10:45:31.417Z,28.00
2019-06-20T10:48:35.357Z,27.90
2019-06-20T10:51:44.190Z,27.70
2019-06-20T10:54:49.321Z,27.70
2019-06-20T10:57:53.409Z,27.80
2019-06-20T11:00:57.448Z,27.80
2019-06-20T11:04:01.448Z,28.10
2019-06-20T11:07:05.540Z,28.30
2019-06-20T11:10:11.403Z,28.50
2019-06-20T11:13:15.317Z,28.40
2019-06-20T11:16:19.498Z,28.10
2019-06-20T11:19:23.432Z,28.10
2019-06-20T11:22:27.470Z,28.20
2019-06-20T11:25:31.607Z,28.30
2019-06-20T11:28:37.700Z,28.40
2019-06-20T11:31:44.673Z,28.40
2019-06-20T11:34:49.377Z,28.20
2019-06-20T11:37:55.924Z,28.30
2019-06-20T11:41:00.109Z,28.30
2019-06-20T11:44:04.347Z,28.20
2019-06-20T11:47:08.432Z,28.30
2019-06-20T11:50:12.970Z,28.20
2019-06-20T11:53:17.059Z,28.30
2019-06-20T11:56:21.177Z,28.30
2019-06-20T11:59:25.239Z,28.20
2019-06-20T12:02:29.277Z,28.40
2019-06-20T12:05:33.346Z,28.50
2019-06-20T12:08:39.090Z,28.60
2019-06-20T12:11:44.469Z,28.30
2019-06-20T12:14:48.663Z,28.80
2019-06-20T12:17:53.034Z,29.00
2019-06-20T12:20:57.177Z,29.00
2019-06-20T12:24:01.406Z,28.80
2019-06-20T12:27:05.547Z,28.90
2019-06-20T12:30:11.308Z,29.10
2019-06-20T12:33:15.401Z,29.20
2019-06-20T12:36:19.530Z,29.40
2019-06-20T12:39:23.649Z,29.40
2019-06-20T12:42:27.764Z,29.70
2019-06-20T12:45:31.851Z,29.30
2019-06-20T12:48:39.639Z,29.40
2019-06-20T12:51:44.781Z,29.70
2019-06-20T12:54:49.184Z,29.90
2019-06-20T12:57:53.452Z,30.00
2019-06-20T13:00:57.827Z,30.00
2019-06-20T13:04:01.957Z,30.10
2019-06-20T13:07:06.173Z,30.10
2019-06-20T13:10:10.547Z,30.20
2019-06-20T13:13:14.689Z,30.00
2019-06-20T13:16:18.857Z,30.10
2019-06-20T13:19:22.992Z,30.10
2019-06-20T13:22:27.044Z,30.10
2019-06-20T13:25:31.199Z,30.10
2019-06-20T13:28:50.871Z,30.10
2019-06-20T13:31:56.142Z,29.80
2019-06-20T13:34:46.934Z,29.80
2019-06-20T13:37:51.169Z,30.20
2019-06-20T13:40:55.290Z,29.70
2019-06-20T13:43:59.528Z,29.80
2019-06-20T13:47:03.620Z,29.80
2019-06-20T13:50:07.941Z,30.20
2019-06-20T13:53:12.049Z,30.30
2019-06-20T13:56:16.225Z,30.00
2019-06-20T13:59:20.297Z,29.70
2019-06-20T14:02:24.346Z,29.40
2019-06-20T14:05:28.430Z,28.80
2019-06-20T14:08:32.600Z,28.10
2019-06-20T14:11:36.696Z,27.90
2019-06-20T14:14:42.245Z,27.60
2019-06-20T14:17:47.197Z,27.40
2019-06-20T14:20:51.467Z,27.30
2019-06-20T14:23:56.631Z,27.20
2019-06-20T14:27:02.300Z,27.10
2019-06-20T14:30:09.974Z,26.80
2019-06-20T14:33:14.135Z,26.60
2019-06-20T14:36:28.323Z,26.70
2019-06-20T14:39:34.199Z,26.60
2019-06-20T14:42:38.338Z,26.30
2019-06-20T14:45:43.843Z,26.20
2019-06-20T14:48:48.509Z,26.20
2019-06-20T14:51:52.693Z,26.20
2019-06-20T14:54:56.759Z,26.00
2019-06-20T14:58:00.805Z,26.10
2019-06-20T15:01:06.380Z,26.00
2019-06-20T15:04:11.107Z,26.00
2019-06-20T15:07:15.323Z,26.00
2019-06-20T15:10:19.640Z,25.80
2019-06-20T15:13:23.743Z,26.00
2019-06-20T15:16:27.861Z,25.90
2019-06-20T15:19:32.017Z,25.90
2019-06-20T15:22:36.200Z,25.90
2019-06-20T15:25:40.328Z,25.90
2019-06-20T15:28:46.231Z,25.90
2019-06-20T15:31:50.616Z,25.90
2019-06-20T15:34:55.138Z,25.90
2019-06-20T15:37:59.239Z,26.00
2019-06-20T15:41:03.262Z,26.00
2019-06-20T15:44:07.381Z,26.20
2019-06-20T15:47:11.470Z,26.40
2019-06-20T15:50:15.871Z,26.40
2019-06-20T15:53:19.858Z,26.60
2019-06-20T15:56:23.859Z,26.70
2019-06-20T15:59:27.850Z,26.80
2019-06-20T16:02:32.008Z,26.80
2019-06-20T16:05:36.196Z,26.70
2019-06-20T16:08:40.197Z,26.80
2019-06-20T16:11:44.279Z,26.90
2019-06-20T16:14:48.288Z,26.90
2019-06-20T16:17:52.530Z,27.00
2019-06-20T16:20:56.647Z,27.00
2019-06-20T16:24:00.762Z,26.90
2019-06-20T16:27:04.818Z,26.70
2019-06-20T16:30:09.727Z,26.70
2019-06-20T16:33:24.579Z,26.60
2019-06-20T16:36:19.480Z,26.60
2019-06-20T16:39:23.472Z,26.50
2019-06-20T16:42:27.623Z,26.40
2019-06-20T16:45:31.762Z,26.30
2019-06-20T16:48:35.795Z,26.20
2019-06-20T16:51:39.957Z,26.20
2019-06-20T16:54:44.153Z,26.00
2019-06-20T16:57:48.225Z,26.00
2019-06-20T17:00:52.391Z,25.90
2019-06-20T17:03:56.504Z,25.90
2019-06-20T17:07:00.667Z,25.70
2019-06-20T17:10:06.322Z,25.60
2019-06-20T17:13:10.430Z,25.60
2019-06-20T17:16:14.518Z,25.50
2019-06-20T17:19:18.631Z,25.40
2019-06-20T17:22:22.772Z,25.30
2019-06-20T17:25:26.850Z,25.10
2019-06-20T17:28:30.963Z,25.10
2019-06-20T17:31:35.030Z,25.10
2019-06-20T17:34:39.149Z,24.90
2019-06-20T17:37:45.045Z,24.80
2019-06-20T17:40:48.912Z,24.80
2019-06-20T17:43:53.117Z,24.70
2019-06-20T17:46:57.208Z,24.70
2019-06-20T17:50:01.330Z,24.70
2019-06-20T17:53:05.558Z,24.70
2019-06-20T17:56:09.678Z,24.50
2019-06-20T17:59:13.792Z,24.50
2019-06-20T18:02:17.928Z,24.40
2019-06-20T18:05:22.308Z,24.30
2019-06-20T18:08:26.462Z,24.30
2019-06-20T18:11:30.655Z,24.10
2019-06-20T18:14:34.791Z,24.10
2019-06-20T18:17:39.016Z,24.00
2019-06-20T18:20:43.336Z,23.90
2019-06-20T18:23:47.474Z,23.90
2019-06-20T18:26:51.731Z,23.70
2019-06-20T18:29:57.231Z,23.60
2019-06-20T18:33:01.265Z,23.60
2019-06-20T18:36:05.581Z,23.50
2019-06-20T18:39:09.792Z,23.50
2019-06-20T18:42:14.033Z,23.40
2019-06-20T18:45:18.313Z,23.50
2019-06-20T18:48:22.436Z,23.40
2019-06-20T18:51:26.529Z,23.20
2019-06-20T18:54:31.022Z,23.20
2019-06-20T18:57:35.681Z,23.30
2019-06-20T19:00:40.075Z,23.30
2019-06-20T19:03:44.231Z,23.10
2019-06-20T19:06:48.397Z,23.10
2019-06-20T19:10:21.890Z,23.00
2019-06-20T19:13:25.684Z,22.90
2019-06-20T19:16:30.270Z,22.90
2019-06-20T19:19:34.578Z,22.80
2019-06-20T19:22:38.817Z,22.60
2019-06-20T19:25:42.936Z,22.60
2019-06-20T19:28:49.064Z,22.60
2019-06-20T19:31:53.138Z,22.50
2019-06-20T19:35:01.788Z,22.50
2019-06-20T19:38:03.206Z,22.40
2019-06-20T19:41:08.032Z,22.40
2019-06-20T19:44:12.108Z,22.50
2019-06-20T19:47:16.365Z,22.40
2019-06-20T19:50:20.847Z,22.30
2019-06-20T19:53:25.131Z,22.30
2019-06-20T19:56:29.445Z,22.30
2019-06-20T19:59:33.718Z,22.30
2019-06-20T20:02:37.988Z,22.20
2019-06-20T20:05:42.256Z,22.10
2019-06-20T20:08:46.413Z,22.10
2019-06-20T20:11:51.363Z,22.20
2019-06-20T20:14:58.521Z,22.10
2019-06-20T20:18:03.116Z,22.10
2019-06-20T20:21:07.653Z,21.90
2019-06-20T20:24:12.083Z,22.00
2019-06-20T20:27:16.463Z,21.90
2019-06-20T20:30:23.813Z,21.90
2019-06-20T20:33:28.143Z,21.90
2019-06-20T20:36:33.915Z,21.80
2019-06-20T20:39:39.314Z,21.70
2019-06-20T20:42:45.112Z,21.70
2019-06-20T20:45:49.526Z,21.70
2019-06-20T20:48:57.717Z,21.70
2019-06-20T20:52:03.063Z,21.50
2019-06-20T20:55:11.827Z,21.60
2019-06-20T20:58:15.976Z,21.70
2019-06-20T21:01:29.175Z,21.60
2019-06-20T21:04:34.558Z,21.50
2019-06-20T21:07:40.237Z,21.60
2019-06-20T21:10:48.161Z,21.50
2019-06-20T21:14:31.126Z,21.40
2019-06-20T21:17:46.248Z,21.40
2019-06-20T21:20:57.237Z,21.30
2019-06-20T21:24:01.211Z,21.20
2019-06-20T21:27:05.170Z,21.10
2019-06-20T21:30:09.908Z,21.10
2019-06-20T21:33:13.975Z,21.10
2019-06-20T21:36:21.087Z,21.00
2019-06-20T21:39:25.135Z,21.10
2019-06-20T21:42:29.126Z,20.90
2019-06-20T21:45:33.159Z,20.80
2019-06-20T21:48:37.161Z,20.70
2019-06-20T21:51:44.508Z,20.60
2019-06-20T21:54:46.948Z,20.60
2019-06-20T21:57:50.896Z,20.70
2019-06-20T22:00:57.757Z,20.60
2019-06-20T22:04:01.919Z,20.60
2019-06-20T22:07:06.087Z,20.60
2019-06-20T22:10:10.367Z,20.60
2019-06-20T22:13:14.461Z,20.70
2019-06-20T22:16:18.678Z,20.60
2019-06-20T22:19:22.658Z,20.60
2019-06-20T22:22:27.961Z,20.60
2019-06-20T22:25:32.803Z,20.50
2019-06-20T22:28:36.782Z,20.60
2019-06-20T22:31:40.794Z,20.50
2019-06-20T22:34:44.825Z,20.40
2019-06-20T22:37:48.842Z,20.40
2019-06-20T22:40:52.752Z,20.50
2019-06-20T22:43:56.738Z,20.50
2019-06-20T22:47:00.787Z,20.40
2019-06-20T22:50:07.176Z,20.40
2019-06-20T22:53:11.076Z,20.30
2019-06-20T22:56:15.158Z,20.50
2019-06-20T22:59:19.126Z,20.30
2019-06-20T23:02:23.124Z,20.30
2019-06-20T23:05:27.092Z,20.30
2019-06-20T23:08:30.967Z,20.40
2019-06-20T23:11:34.936Z,20.40
2019-06-20T23:14:38.860Z,20.40
2019-06-20T23:17:42.791Z,20.30
2019-06-20T23:21:03.733Z,20.30
2019-06-20T23:23:52.445Z,20.30
2019-06-20T23:26:56.386Z,20.20
2019-06-20T23:30:00.346Z,20.30
2019-06-20T23:33:04.467Z,20.10
2019-06-20T23:36:08.408Z,20.10
2019-06-20T23:39:12.332Z,20.00
2019-06-20T23:42:16.294Z,19.90
2019-06-20T23:45:20.316Z,19.90
2019-06-20T23:48:24.246Z,19.90
2019-06-20T23:51:29.775Z,19.90
2019-06-20T23:54:33.909Z,19.90
2019-06-20T23:57:37.943Z,19.90
